Time;durP1;ratioP1;P1;durP2;ratioP2;P2;SDS_P1;SDS_P2;PMS_P1;PMS_P2;Temp;Humidity;BMP_temperature;BMP_pressure;BME280_temperature;BME280_humidity;BME280_pressure;Samples;Min_cycle;Max_cycle;Signal;HPM_P1;HPM_P2
2021/08/07 00:01:52;;;;;;;13.38;4.97;;;;;;;16.83;100.00;98441.85;1739469;82;20970;-68
2021/08/07 00:04:18;;;;;;;19.17;5.22;;;;;;;16.82;100.00;98444.41;1739636;82;21031;-68
2021/08/07 00:06:45;;;;;;;6.78;4.70;;;;;;;16.80;100.00;98448.16;1739484;82;21139;-69
2021/08/07 00:09:13;;;;;;;6.90;4.78;;;;;;;16.78;100.00;98451.91;1739503;82;20935;-69
2021/08/07 00:11:40;;;;;;;6.37;4.45;;;;;;;16.77;100.00;98460.02;1739410;82;20919;-68
2021/08/07 00:14:07;;;;;;;10.32;4.42;;;;;;;16.75;100.00;98451.28;1739419;82;21043;-68
2021/08/07 00:16:34;;;;;;;6.08;4.12;;;;;;;16.73;100.00;98457.03;1739985;82;21014;-68
2021/08/07 00:19:01;;;;;;;9.85;4.65;;;;;;;16.69;100.00;98457.59;1739715;82;21135;-68
2021/08/07 00:21:28;;;;;;;11.73;4.10;;;;;;;16.64;100.00;98459.30;1739835;82;20990;-68
2021/08/07 00:23:55;;;;;;;6.05;4.15;;;;;;;16.61;100.00;98467.78;1739872;82;20947;-69
2021/08/07 00:26:21;;;;;;;6.95;4.22;;;;;;;16.59;100.00;98471.52;1740122;82;21029;-69
2021/08/07 00:28:49;;;;;;;6.97;4.37;;;;;;;16.57;100.00;98474.47;1739943;82;20951;-69
2021/08/07 00:31:15;;;;;;;8.85;4.12;;;;;;;16.54;100.00;98470.48;1740282;82;21040;-69
2021/08/07 00:33:42;;;;;;;6.55;3.65;;;;;;;16.51;100.00;98480.35;1740337;82;21549;-69
2021/08/07 00:36:11;;;;;;;10.38;4.10;;;;;;;16.48;100.00;98480.31;1740235;82;20979;-69
2021/08/07 00:38:38;;;;;;;15.55;6.37;;;;;;;16.46;100.00;98492.36;1740460;82;20951;-69
2021/08/07 00:41:05;;;;;;;16.35;5.53;;;;;;;16.47;100.00;98491.19;1740619;82;20895;-69
2021/08/07 00:43:33;;;;;;;16.95;4.92;;;;;;;16.46;100.00;98490.98;1740241;82;21109;-69
2021/08/07 00:46:00;;;;;;;15.98;4.50;;;;;;;16.45;100.00;98486.03;1738982;82;20992;-69
2021/08/07 00:48:29;;;;;;;9.10;4.50;;;;;;;16.43;100.00;98488.97;1732676;82;20991;-69
2021/08/07 00:50:58;;;;;;;15.38;4.50;;;;;;;16.40;100.00;98488.34;1732634;82;20971;-69
2021/08/07 00:53:24;;;;;;;8.15;4.03;;;;;;;16.38;100.00;98494.27;1732965;82;20931;-69
2021/08/07 00:55:52;;;;;;;7.35;4.65;;;;;;;16.37;100.00;98504.33;1716699;82;21162;-70
2021/08/07 00:58:20;;;;;;;6.87;4.78;;;;;;;16.36;100.00;98503.54;1732823;82;20880;-69
2021/08/07 01:00:49;;;;;;;13.30;4.05;;;;;;;16.37;100.00;98498.20;1733076;82;20916;-70
2021/08/07 01:03:32;;;;;;;8.70;4.58;;;;;;;16.37;100.00;98505.13;1733105;82;21414;-70
2021/08/07 01:06:07;;;;;;;4.92;3.77;;;;;;;16.37;100.00;98509.29;1733068;82;20995;-70
2021/08/07 01:08:40;;;;;;;7.87;4.33;;;;;;;16.37;100.00;98507.10;1732919;82;21170;-68
2021/08/07 01:11:19;;;;;;;4.95;4.00;;;;;;;16.36;100.00;98513.23;1733102;82;20892;-68
2021/08/07 01:13:51;;;;;;;6.05;3.87;;;;;;;16.34;100.00;98509.25;1697022;82;20963;-68
2021/08/07 01:16:31;;;;;;;7.10;4.00;;;;;;;16.32;100.00;98508.83;1693919;84;21478;-68
2021/08/07 01:19:01;;;;;;;10.00;4.15;;;;;;;16.32;100.00;98510.21;1694319;84;20932;-68
2021/08/07 01:21:34;;;;;;;10.05;4.50;;;;;;;16.29;100.00;98506.23;1701284;84;21122;-68
2021/08/07 01:24:16;;;;;;;;;;;;;;;16.29;100.00;98517.30;1696031;84;20984;-68
2021/08/07 01:27:02;;;;;;;10.20;4.40;;;;;;;16.28;100.00;98516.30;1694518;82;20106;-68
2021/08/07 01:29:28;;;;;;;10.63;4.70;;;;;;;16.26;100.00;98522.21;1672567;84;21016;-68
2021/08/07 01:31:57;;;;;;;6.67;4.42;;;;;;;16.23;100.00;98517.43;1693737;84;21035;-68
2021/08/07 01:34:31;;;;;;;9.58;4.10;;;;;;;16.21;100.00;98517.02;1694465;82;21225;-68
2021/08/07 01:36:58;;;;;;;6.40;3.87;;;;;;;16.19;100.00;98524.31;1693676;84;21027;-68
2021/08/07 01:39:26;;;;;;;7.00;4.08;;;;;;;16.18;100.00;98532.99;1696932;82;20987;-69
2021/08/07 01:41:53;;;;;;;7.33;4.08;;;;;;;16.16;100.00;98531.22;1693600;84;21011;-68
2021/08/07 01:44:21;;;;;;;4.97;3.70;;;;;;;16.15;100.00;98527.66;1693425;83;20984;-69
2021/08/07 01:46:54;;;;;;;8.78;4.50;;;;;;;16.14;100.00;98533.57;1694292;84;21113;-69
2021/08/07 01:49:30;;;;;;;7.45;4.35;;;;;;;16.14;100.00;98540.48;1694448;84;20997;-69
2021/08/07 01:52:01;;;;;;;5.62;3.67;;;;;;;16.11;100.00;98537.89;1695011;84;21081;-69
2021/08/07 01:54:33;;;;;;;9.25;4.22;;;;;;;16.09;100.00;98538.05;1679617;84;20890;-68
2021/08/07 01:57:05;;;;;;;6.95;3.72;;;;;;;16.08;100.00;98530.92;1694921;84;20982;-68
2021/08/07 01:59:34;;;;;;;9.25;4.05;;;;;;;16.06;100.00;98538.80;1694936;84;21124;-68
2021/08/07 02:02:00;;;;;;;6.37;3.87;;;;;;;16.02;100.00;98539.34;1702300;84;21053;-68
2021/08/07 02:04:28;;;;;;;6.33;3.80;;;;;;;15.98;100.00;98542.66;1693194;84;20981;-68
2021/08/07 02:07:00;;;;;;;9.18;4.58;;;;;;;15.95;100.00;98546.17;1693959;84;20992;-68
2021/08/07 02:09:26;;;;;;;4.87;4.30;;;;;;;15.89;100.00;98552.62;1695209;83;20957;-68
2021/08/07 02:11:55;;;;;;;7.58;4.03;;;;;;;15.83;100.00;98553.53;1694797;84;21894;-69
2021/08/07 02:14:22;;;;;;;8.15;4.00;;;;;;;15.77;100.00;98550.88;1702654;84;21430;-69
2021/08/07 02:16:49;;;;;;;8.50;3.70;;;;;;;15.69;100.00;98554.71;1694909;84;21032;-68
2021/08/07 02:19:18;;;;;;;16.05;4.75;;;;;;;15.63;100.00;98556.79;1694651;84;21529;-69
2021/08/07 02:21:44;;;;;;;6.55;3.85;;;;;;;15.57;100.00;98565.23;1695052;84;21556;-69
2021/08/07 02:24:14;;;;;;;8.85;4.08;;;;;;;15.52;100.00;98564.92;1694478;84;21140;-69
2021/08/07 02:26:42;;;;;;;5.72;3.80;;;;;;;15.47;100.00;98572.16;1722665;82;21429;-69
2021/08/07 02:29:09;;;;;;;9.20;4.10;;;;;;;15.43;100.00;98574.06;1723578;82;21532;-68
2021/08/07 02:31:38;;;;;;;8.70;4.17;;;;;;;15.36;100.00;98576.14;1720860;83;21073;-68
2021/08/07 02:34:05;;;;;;;10.28;4.20;;;;;;;15.33;100.00;98576.08;1720532;83;20914;-68
2021/08/07 02:36:33;;;;;;;6.50;4.17;;;;;;;15.29;100.00;98583.52;1720330;83;21087;-68
2021/08/07 02:39:02;;;;;;;5.55;4.70;;;;;;;15.26;100.00;98582.87;1725524;83;20934;-69
2021/08/07 02:41:29;;;;;;;6.35;4.33;;;;;;;15.22;100.00;98593.88;1720093;83;21045;-68
2021/08/07 02:43:59;;;;;;;10.90;4.10;;;;;;;15.19;100.00;98600.94;1720408;83;20930;-69
2021/08/07 02:46:31;;;;;;;7.22;3.95;;;;;;;15.18;100.00;98604.87;1725790;83;20970;-69
2021/08/07 02:49:00;;;;;;;9.73;3.98;;;;;;;15.17;100.00;98613.53;1721386;83;21765;-68
2021/08/07 02:51:30;;;;;;;12.93;4.35;;;;;;;15.13;100.00;98614.85;1713449;83;21030;-68
2021/08/07 02:53:59;;;;;;;10.90;4.03;;;;;;;15.12;100.00;98617.40;1713439;83;20954;-68
2021/08/07 02:56:30;;;;;;;15.20;4.08;;;;;;;15.08;100.00;98611.01;1712645;83;21476;-69
2021/08/07 02:58:59;;;;;;;10.45;4.70;;;;;;;15.07;100.00;98609.41;1701813;83;20991;-69
2021/08/07 03:01:29;;;;;;;10.10;3.83;;;;;;;15.07;100.00;98623.81;1674762;85;21793;-69
2021/08/07 03:03:58;;;;;;;6.67;4.03;;;;;;;15.05;100.00;98622.00;1659144;85;21510;-69
2021/08/07 03:06:29;;;;;;;5.95;4.12;;;;;;;15.03;100.00;98619.61;1659232;85;21478;-69
2021/08/07 03:08:57;;;;;;;6.50;4.30;;;;;;;15.02;100.00;98624.91;1674716;85;20975;-70
2021/08/07 03:11:29;;;;;;;11.08;4.65;;;;;;;14.98;100.00;98622.70;1681238;83;20974;-70
2021/08/07 03:14:00;;;;;;;13.62;4.28;;;;;;;14.95;100.00;98622.63;1707086;83;21125;-69
2021/08/07 03:16:31;;;;;;;5.75;4.17;;;;;;;14.94;100.00;98627.36;1698941;83;21509;-69
2021/08/07 03:19:02;;;;;;;4.62;4.00;;;;;;;14.94;100.00;98629.33;1696850;83;20986;-69
2021/08/07 03:21:33;;;;;;;14.63;4.00;;;;;;;14.92;100.00;98634.42;1696473;83;21041;-69
2021/08/07 03:24:04;;;;;;;7.50;4.10;;;;;;;14.91;100.00;98634.20;1698606;83;20958;-69
2021/08/07 03:26:34;;;;;;;6.58;4.50;;;;;;;14.92;100.00;98636.60;1699596;83;21536;-70
2021/08/07 03:29:06;;;;;;;6.92;4.08;;;;;;;14.92;100.00;98644.09;1696969;83;21023;-69
2021/08/07 03:31:38;;;;;;;7.85;4.22;;;;;;;14.91;100.00;98646.05;1696577;83;21553;-69
2021/08/07 03:34:07;;;;;;;6.42;3.85;;;;;;;14.93;100.00;98656.16;1682142;83;21018;-69
2021/08/07 03:36:38;;;;;;;5.85;4.33;;;;;;;14.95;100.00;98654.41;1699299;83;20978;-69
2021/08/07 03:39:09;;;;;;;7.33;3.98;;;;;;;14.98;100.00;98658.63;1698121;83;21914;-69
2021/08/07 03:41:39;;;;;;;5.25;4.20;;;;;;;15.01;100.00;98667.56;1701114;83;21039;-69
2021/08/07 03:44:08;;;;;;;14.03;5.00;;;;;;;15.06;100.00;98663.67;1708324;83;20967;-69
2021/08/07 03:46:35;;;;;;;11.57;4.40;;;;;;;15.13;100.00;98665.19;1699698;83;21030;-69
2021/08/07 03:49:02;;;;;;;8.05;3.80;;;;;;;15.18;100.00;98668.45;1688393;83;21106;-69
2021/08/07 03:51:30;;;;;;;5.22;3.90;;;;;;;15.26;100.00;98667.20;1696795;83;21066;-69
2021/08/07 03:53:58;;;;;;;4.58;3.50;;;;;;;15.32;100.00;98662.97;1686699;83;21499;-69
2021/08/07 03:56:28;;;;;;;8.28;4.28;;;;;;;15.36;100.00;98656.91;1694258;83;21062;-69
2021/08/07 03:58:57;;;;;;;6.75;4.17;;;;;;;15.39;100.00;98660.33;1676150;83;21030;-69
2021/08/07 04:01:25;;;;;;;8.35;3.85;;;;;;;15.45;100.00;98658.84;1687983;83;21070;-68
2021/08/07 04:03:52;;;;;;;6.15;4.05;;;;;;;15.52;100.00;98664.50;1689233;83;21839;-69
2021/08/07 04:06:19;;;;;;;9.65;4.08;;;;;;;15.58;100.00;98669.17;1696178;83;20908;-69
2021/08/07 04:08:46;;;;;;;8.45;3.77;;;;;;;15.64;100.00;98671.81;1688367;83;21059;-69
2021/08/07 04:11:13;;;;;;;5.30;4.03;;;;;;;15.68;100.00;98658.25;1704581;83;21003;-69
2021/08/07 04:13:42;;;;;;;10.00;3.85;;;;;;;15.72;100.00;98667.99;1718265;83;21476;-68
2021/08/07 04:16:08;;;;;;;8.10;4.12;;;;;;;15.76;100.00;98659.96;1719007;83;21557;-68
2021/08/07 04:18:37;;;;;;;7.03;3.72;;;;;;;15.82;100.00;98657.09;1708584;83;20977;-69
2021/08/07 04:21:06;;;;;;;6.70;3.67;;;;;;;15.91;100.00;98665.72;1676226;84;21537;-68
2021/08/07 04:23:33;;;;;;;4.37;3.52;;;;;;;15.94;100.00;98664.98;1676506;85;21026;-68
2021/08/07 04:26:02;;;;;;;4.05;2.87;;;;;;;15.98;100.00;98664.45;1682746;83;21020;-69
2021/08/07 04:28:29;;;;;;;5.35;3.67;;;;;;;15.99;100.00;98667.42;1688950;83;21127;-68
2021/08/07 04:30:56;;;;;;;9.18;2.77;;;;;;;15.97;100.00;98667.00;1687402;83;21011;-68
2021/08/07 04:33:23;;;;;;;5.95;3.08;;;;;;;15.98;100.00;98661.67;1695567;83;21453;-69
2021/08/07 04:35:51;;;;;;;7.08;2.87;;;;;;;15.99;100.00;98666.84;1696467;83;21663;-68
2021/08/07 04:38:20;;;;;;;7.58;2.50;;;;;;;16.03;100.00;98662.16;1685168;83;21493;-68
2021/08/07 04:40:48;;;;;;;5.75;2.90;;;;;;;16.05;100.00;98669.50;1696922;83;21099;-68
2021/08/07 04:43:17;;;;;;;3.62;2.40;;;;;;;16.08;100.00;98667.37;1682842;83;21026;-69
2021/08/07 04:45:44;;;;;;;5.95;2.90;;;;;;;16.10;100.00;98669.77;1687693;85;21418;-69
2021/08/07 04:48:11;;;;;;;10.15;3.15;;;;;;;16.11;100.00;98671.37;1710135;83;20982;-69
2021/08/07 04:50:46;;;;;;;5.20;2.70;;;;;;;16.13;100.00;98669.82;1727543;83;21568;-68
2021/08/07 04:53:13;;;;;;;2.75;2.52;;;;;;;16.16;100.00;98686.27;1727695;82;21108;-68
2021/08/07 04:55:42;;;;;;;3.12;2.65;;;;;;;16.20;100.00;98685.70;1727757;83;20895;-68
2021/08/07 04:58:14;;;;;;;5.65;2.90;;;;;;;16.26;100.00;98684.80;1727323;83;20951;-67
2021/08/07 05:00:39;;;;;;;4.75;2.98;;;;;;;16.28;100.00;98672.17;1727747;83;20974;-68
2021/08/07 05:03:07;;;;;;;5.45;2.58;;;;;;;16.35;100.00;98669.50;1727576;83;20950;-68
2021/08/07 05:05:35;;;;;;;6.33;2.75;;;;;;;16.39;100.00;98666.78;1727636;83;21144;-68
2021/08/07 05:08:06;;;;;;;3.35;2.75;;;;;;;16.45;100.00;98660.54;1727812;83;21010;-68
2021/08/07 05:10:34;;;;;;;3.50;2.58;;;;;;;16.51;100.00;98668.73;1727691;83;20926;-69
2021/08/07 05:13:02;;;;;;;7.22;2.75;;;;;;;16.55;100.00;98674.91;1728031;83;21497;-69
2021/08/07 05:15:30;;;;;;;8.35;3.00;;;;;;;16.59;100.00;98679.91;1727778;83;20991;-68
2021/08/07 05:18:00;;;;;;;5.72;2.37;;;;;;;16.63;100.00;98679.36;1727821;83;20927;-69
2021/08/07 05:20:29;;;;;;;6.55;2.72;;;;;;;16.63;100.00;98675.21;1727775;83;20895;-69
2021/08/07 05:22:57;;;;;;;6.10;2.27;;;;;;;16.64;100.00;98684.56;1728242;83;21505;-68
2021/08/07 05:25:24;;;;;;;5.30;2.58;;;;;;;16.67;100.00;98687.17;1727682;83;21029;-68
2021/08/07 05:27:52;;;;;;;4.05;3.02;;;;;;;16.69;100.00;98696.70;1722013;81;21429;-68
2021/08/07 05:30:21;;;;;;;6.97;3.15;;;;;;;16.70;100.00;98692.75;1705836;83;21821;-68
2021/08/07 05:32:52;;;;;;;3.47;2.30;;;;;;;16.78;100.00;98697.77;1688378;84;20927;-68
2021/08/07 05:35:20;;;;;;;3.80;2.65;;;;;;;16.88;100.00;98697.69;1688239;85;20939;-69
2021/08/07 05:37:50;;;;;;;2.80;2.27;;;;;;;17.00;100.00;98698.83;1688346;84;20942;-67
2021/08/07 05:40:20;;;;;;;2.90;2.27;;;;;;;17.10;100.00;98694.78;1660914;85;20875;-69
2021/08/07 05:42:50;;;;;;;2.83;1.82;;;;;;;17.20;100.00;98696.08;1688674;85;21489;-77
2021/08/07 05:45:18;;;;;;;4.35;1.80;;;;;;;17.28;99.72;98701.91;1688143;85;21529;-75
2021/08/07 05:47:47;;;;;;;2.80;1.75;;;;;;;17.35;100.00;98709.48;1696424;81;21046;-68
2021/08/07 05:50:17;;;;;;;3.87;2.27;;;;;;;17.41;98.20;98719.05;1689924;84;20959;-69
2021/08/07 05:52:46;;;;;;;6.10;2.35;;;;;;;17.45;95.86;98707.41;1672475;85;20975;-68
2021/08/07 05:55:15;;;;;;;5.25;2.60;;;;;;;17.48;96.52;98712.19;1672224;85;21106;-70
2021/08/07 05:57:44;;;;;;;4.78;2.30;;;;;;;17.45;95.99;98715.14;1690058;84;21521;-71
2021/08/07 06:00:14;;;;;;;5.40;2.30;;;;;;;17.47;94.90;98714.75;1690217;84;21066;-73
2021/08/07 06:02:49;;;;;;;6.62;2.00;;;;;;;17.56;97.42;98714.44;1689882;84;21009;-73
2021/08/07 06:05:19;;;;;;;2.90;2.50;;;;;;;17.66;94.20;98707.64;1689466;84;21098;-73
2021/08/07 06:07:52;;;;;;;4.20;2.25;;;;;;;17.71;92.80;98713.42;1691029;84;21097;-71
2021/08/07 06:10:21;;;;;;;5.53;1.90;;;;;;;17.76;95.07;98715.85;1691177;84;20903;-70
2021/08/07 06:12:51;;;;;;;6.00;2.40;;;;;;;17.83;93.26;98716.50;1691372;84;20951;-68
2021/08/07 06:15:22;;;;;;;3.12;1.95;;;;;;;17.89;92.66;98713.58;1691091;84;21049;-68
2021/08/07 06:17:50;;;;;;;5.15;2.10;;;;;;;17.92;91.14;98721.11;1691479;84;20927;-73
2021/08/07 06:20:17;;;;;;;3.70;2.30;;;;;;;17.88;89.39;98716.95;1691522;84;22149;-73
2021/08/07 06:22:46;;;;;;;6.42;2.35;;;;;;;17.89;88.06;98717.75;1690552;83;20966;-70
2021/08/07 06:25:13;;;;;;;5.10;2.02;;;;;;;17.94;87.67;98717.36;1679894;83;21516;-67
2021/08/07 06:27:43;;;;;;;4.90;1.98;;;;;;;18.00;90.70;98709.67;1667015;84;21009;-69
2021/08/07 06:30:12;;;;;;;4.15;2.10;;;;;;;18.09;88.30;98712.92;1637394;87;21044;-69
2021/08/07 06:32:39;;;;;;;3.40;1.90;;;;;;;18.20;89.91;98717.75;1651681;83;21750;-68
2021/08/07 06:35:08;;;;;;;3.65;1.80;;;;;;;18.26;86.60;98722.56;1683353;85;20963;-68
2021/08/07 06:37:35;;;;;;;6.10;1.77;;;;;;;18.33;86.65;98728.17;1684087;85;20962;-73
2021/08/07 06:40:04;;;;;;;2.67;1.52;;;;;;;18.42;84.46;98730.61;1676866;83;21010;-69
2021/08/07 06:42:30;;;;;;;5.08;1.75;;;;;;;18.48;85.89;98735.38;1647176;83;21604;-69
2021/08/07 06:45:03;;;;;;;2.20;1.62;;;;;;;18.55;80.48;98731.84;1636458;86;21165;-69
2021/08/07 06:47:30;;;;;;;2.02;1.57;;;;;;;18.55;79.69;98732.44;1636031;87;21567;-69
2021/08/07 06:49:58;;;;;;;5.42;1.67;;;;;;;18.52;78.94;98734.02;1643099;86;20926;-69
2021/08/07 06:52:24;;;;;;;2.42;1.62;;;;;;;18.53;81.48;98732.83;1643503;87;20959;-69
2021/08/07 06:54:52;;;;;;;2.75;1.60;;;;;;;18.54;81.74;98727.47;1643034;86;21018;-69
2021/08/07 06:57:20;;;;;;;2.42;1.57;;;;;;;18.61;79.95;98729.53;1643343;87;21144;-69
2021/08/07 06:59:48;;;;;;;4.97;1.95;;;;;;;18.70;80.90;98728.59;1643459;86;20919;-69
2021/08/07 07:02:15;;;;;;;1.65;1.55;;;;;;;18.78;80.58;98727.44;1643382;87;21018;-69
2021/08/07 07:04:42;;;;;;;4.10;1.90;;;;;;;18.88;81.31;98723.91;1643938;86;20986;-69
2021/08/07 07:07:09;;;;;;;1.52;1.42;;;;;;;18.94;77.28;98722.34;1644273;87;21003;-69
2021/08/07 07:09:37;;;;;;;3.22;1.60;;;;;;;18.97;79.87;98719.38;1657304;85;21177;-69
2021/08/07 07:12:05;;;;;;;4.08;1.50;;;;;;;18.99;77.52;98729.52;1673415;85;21598;-68
2021/08/07 07:14:32;;;;;;;1.72;1.62;;;;;;;19.00;76.20;98731.91;1668472;86;20903;-68
2021/08/07 07:17:00;;;;;;;1.52;1.35;;;;;;;19.07;74.25;98743.63;1668414;86;21497;-69
2021/08/07 07:19:30;;;;;;;3.55;1.50;;;;;;;19.06;74.77;98734.48;1668376;86;21004;-69
2021/08/07 07:21:57;;;;;;;3.42;1.35;;;;;;;19.09;73.14;98742.05;1668432;86;21055;-69
2021/08/07 07:24:25;;;;;;;6.15;1.40;;;;;;;19.15;76.18;98745.25;1668592;86;21474;-69
2021/08/07 07:26:52;;;;;;;2.60;1.32;;;;;;;19.23;76.56;98742.69;1668469;86;20944;-69
2021/08/07 07:29:19;;;;;;;1.62;1.27;;;;;;;19.31;77.49;98742.91;1668305;86;20989;-69
2021/08/07 07:31:48;;;;;;;2.00;1.42;;;;;;;19.45;78.21;98751.90;1686752;85;20955;-69
2021/08/07 07:34:16;;;;;;;1.85;1.12;;;;;;;19.54;72.78;98755.73;1681307;85;21089;-69
2021/08/07 07:36:43;;;;;;;6.08;1.27;;;;;;;19.58;75.43;98751.76;1681268;85;20940;-68
2021/08/07 07:39:10;;;;;;;4.05;1.10;;;;;;;19.71;76.08;98752.16;1681401;85;20935;-69
2021/08/07 07:41:38;;;;;;;3.35;1.17;;;;;;;19.86;74.27;98739.04;1681329;85;21055;-68
2021/08/07 07:44:06;;;;;;;2.52;1.00;;;;;;;19.94;70.80;98746.20;1681499;85;22099;-68
2021/08/07 07:46:33;;;;;;;1.37;0.98;;;;;;;19.97;73.24;98744.81;1681607;85;21104;-68
2021/08/07 07:49:01;;;;;;;1.37;1.00;;;;;;;20.08;70.28;98745.61;1673762;85;21602;-68
2021/08/07 07:51:29;;;;;;;3.35;1.10;;;;;;;20.21;71.17;98749.39;1664266;86;21065;-69
2021/08/07 07:53:56;;;;;;;3.50;1.32;;;;;;;20.28;70.11;98751.55;1664257;86;21877;-69
2021/08/07 07:56:24;;;;;;;1.60;1.37;;;;;;;20.34;69.04;98756.91;1664648;86;20907;-69
2021/08/07 07:58:51;;;;;;;3.45;1.47;;;;;;;20.38;68.99;98754.95;1664704;86;21167;-69
2021/08/07 08:01:18;;;;;;;2.85;1.40;;;;;;;20.44;69.55;98749.77;1664309;86;20979;-69
2021/08/07 08:03:45;;;;;;;3.98;1.15;;;;;;;20.56;68.77;98756.92;1664459;86;21098;-69
2021/08/07 08:06:13;;;;;;;1.75;1.37;;;;;;;20.79;67.13;98757.86;1664504;86;21004;-69
2021/08/07 08:08:41;;;;;;;2.10;1.20;;;;;;;21.07;65.99;98762.72;1664631;86;20940;-69
2021/08/07 08:11:08;;;;;;;4.53;1.20;;;;;;;21.38;63.37;98757.40;1664537;86;21144;-69
2021/08/07 08:13:35;;;;;;;1.65;1.05;;;;;;;21.65;63.05;98762.62;1664376;86;21018;-69
2021/08/07 08:16:02;;;;;;;3.20;0.90;;;;;;;21.92;61.13;98748.08;1664633;86;20907;-69
2021/08/07 08:18:30;;;;;;;4.70;1.60;;;;;;;22.16;63.08;98748.48;1664649;86;21007;-69
2021/08/07 08:20:57;;;;;;;2.58;1.10;;;;;;;22.31;57.94;98738.77;1664434;86;20919;-68
2021/08/07 08:23:23;;;;;;;3.83;1.20;;;;;;;22.38;58.44;98742.89;1664607;86;21146;-69
2021/08/07 08:25:50;;;;;;;3.37;1.30;;;;;;;22.55;57.66;98743.11;1664343;86;21419;-68
2021/08/07 08:28:18;;;;;;;2.98;1.35;;;;;;;22.65;57.04;98747.80;1664425;85;21011;-69
2021/08/07 08:30:45;;;;;;;4.72;0.95;;;;;;;22.77;59.64;98742.28;1664571;86;21026;-68
2021/08/07 08:33:12;;;;;;;3.27;1.20;;;;;;;22.95;58.12;98742.90;1664525;86;20852;-69
2021/08/07 08:35:39;;;;;;;4.87;1.27;;;;;;;23.06;57.44;98733.77;1664500;86;21494;-69
2021/08/07 08:38:06;;;;;;;2.80;1.10;;;;;;;23.18;57.20;98739.39;1647284;86;21582;-69
2021/08/07 08:40:33;;;;;;;2.27;1.00;;;;;;;23.32;57.35;98744.20;1664496;86;20908;-69
2021/08/07 08:43:00;;;;;;;4.15;1.05;;;;;;;23.58;57.79;98734.27;1664387;86;20911;-69
2021/08/07 08:45:27;;;;;;;1.85;1.20;;;;;;;23.83;57.00;98747.88;1664591;86;21023;-68
2021/08/07 08:47:57;;;;;;;3.22;1.50;;;;;;;24.03;53.76;98754.98;1663051;86;21206;-69
2021/08/07 08:50:23;;;;;;;3.50;1.25;;;;;;;24.20;54.76;98753.89;1670996;85;20939;-71
2021/08/07 08:52:51;;;;;;;1.12;0.82;;;;;;;24.40;53.59;98753.16;1654933;85;21458;-68
2021/08/07 08:55:18;;;;;;;1.47;0.85;;;;;;;24.60;50.27;98743.57;1681146;85;20916;-69
2021/08/07 08:57:45;;;;;;;2.50;0.90;;;;;;;24.79;50.85;98756.66;1681249;85;22336;-69
2021/08/07 09:00:14;;;;;;;2.10;1.10;;;;;;;24.91;49.90;98752.57;1681115;85;23288;-69
2021/08/07 09:02:42;;;;;;;0.88;0.85;;;;;;;25.03;50.39;98749.77;1670386;85;21459;-68
2021/08/07 09:05:11;;;;;;;3.67;1.02;;;;;;;25.15;49.09;98757.53;1653260;85;21525;-68
2021/08/07 09:07:38;;;;;;;3.70;0.85;;;;;;;25.30;49.40;98770.67;1681347;85;21490;-68
2021/08/07 09:10:07;;;;;;;1.77;1.17;;;;;;;25.44;50.12;98775.96;1680338;85;21036;-69
2021/08/07 09:12:49;;;;;;;1.65;0.90;;;;;;;25.50;47.70;98772.03;1680677;85;21109;-68
2021/08/07 09:15:32;;;;;;;1.25;0.95;;;;;;;25.43;48.02;98767.36;1680489;85;20958;-69
2021/08/07 09:18:22;;;;;;;0.90;0.90;;;;;;;25.37;47.82;98764.11;1680000;85;21034;-70
2021/08/07 09:20:52;;;;;;;1.02;0.80;;;;;;;25.29;46.58;98770.50;1663447;85;21094;-73
2021/08/07 09:23:31;;;;;;;1.77;0.98;;;;;;;25.14;47.74;98779.83;1680074;85;21063;-68
2021/08/07 09:26:18;;;;;;;1.10;0.88;;;;;;;24.96;46.18;98775.97;1681080;85;21770;-69
2021/08/07 09:28:51;;;;;;;1.72;1.00;;;;;;;24.56;48.88;98776.52;1681235;84;21556;-70
2021/08/07 09:31:21;;;;;;;3.12;1.02;;;;;;;24.17;49.64;98782.78;1681329;85;21074;-68
2021/08/07 09:34:16;;;;;;;1.98;0.90;;;;;;;24.03;50.06;98778.80;1681262;85;21428;-68
2021/08/07 09:36:48;;;;;;;3.55;1.12;;;;;;;24.12;51.14;98783.88;1681147;85;20939;-68
2021/08/07 09:39:15;;;;;;;;;;;;;;;24.30;50.33;98782.37;1683841;85;21438;-68
2021/08/07 09:42:00;;;;;;;2.00;0.80;;;;;;;24.52;49.57;98776.39;1681347;85;20087;-68
2021/08/07 09:44:28;;;;;;;3.77;0.90;;;;;;;24.77;48.35;98782.95;1681576;85;20994;-67
2021/08/07 09:47:05;;;;;;;2.02;0.80;;;;;;;24.93;45.82;98785.83;1668745;85;21061;-66
2021/08/07 09:49:39;;;;;;;7.40;1.10;;;;;;;24.97;46.72;98788.78;1651106;85;21002;-67
2021/08/07 09:52:06;;;;;;;2.33;1.10;;;;;;;25.08;46.79;98794.19;1664946;85;21133;-66
2021/08/07 09:54:41;;;;;;;2.02;0.85;;;;;;;25.23;43.96;98791.27;1688172;85;21014;-67
2021/08/07 09:57:12;;;;;;;1.30;0.80;;;;;;;25.28;43.30;98795.59;1688356;84;21502;-68
2021/08/07 09:59:48;;;;;;;1.77;0.80;;;;;;;25.35;46.01;98787.02;1688387;85;20987;-68
2021/08/07 10:02:35;;;;;;;1.12;1.00;;;;;;;25.55;43.88;98783.55;1722632;83;21069;-72
2021/08/07 10:05:06;;;;;;;5.65;1.85;;;;;;;25.71;44.41;98779.23;1728705;81;21133;-68
2021/08/07 10:07:33;;;;;;;1.92;1.05;;;;;;;25.78;43.44;98793.12;1727709;81;21009;-67
2021/08/07 10:10:02;;;;;;;1.57;0.93;;;;;;;25.75;44.43;98786.97;1726902;82;21034;-68
2021/08/07 10:12:29;;;;;;;1.45;0.90;;;;;;;25.87;43.12;98789.09;1727680;83;21066;-65
2021/08/07 10:14:57;;;;;;;2.02;1.37;;;;;;;25.72;43.22;98793.45;1727860;83;20986;-64
2021/08/07 10:17:26;;;;;;;1.52;0.80;;;;;;;25.36;43.79;98789.22;1729250;83;22080;-64
2021/08/07 10:19:54;;;;;;;1.45;0.90;;;;;;;25.15;44.25;98791.23;1729065;83;20922;-64
2021/08/07 10:22:23;;;;;;;3.60;1.27;;;;;;;25.12;44.96;98783.67;1729285;83;20899;-64
2021/08/07 10:24:53;;;;;;;0.65;0.65;;;;;;;25.33;46.90;98793.07;1730880;82;20929;-64
2021/08/07 10:27:21;;;;;;;3.08;1.02;;;;;;;25.70;43.34;98786.08;1734402;82;20882;-65
2021/08/07 10:29:53;;;;;;;1.40;0.90;;;;;;;25.88;44.47;98790.68;1727256;83;23273;-67
2021/08/07 10:32:21;;;;;;;3.35;1.00;;;;;;;26.18;44.04;98787.52;1697306;84;20974;-64
2021/08/07 10:34:50;;;;;;;1.50;1.05;;;;;;;26.36;41.70;98785.70;1697222;84;20958;-65
2021/08/07 10:37:19;;;;;;;1.32;0.78;;;;;;;26.29;43.02;98792.89;1711887;81;21096;-66
2021/08/07 10:39:47;;;;;;;2.02;1.02;;;;;;;26.26;41.75;98796.58;1688215;84;21058;-66
2021/08/07 10:42:16;;;;;;;2.37;1.50;;;;;;;26.30;43.18;98792.45;1699255;81;21879;-65
2021/08/07 10:44:46;;;;;;;3.08;1.15;;;;;;;26.50;43.22;98784.55;1699798;83;20870;-65
2021/08/07 10:47:13;;;;;;;3.67;1.30;;;;;;;26.60;42.08;98782.84;1727965;83;20917;-65
2021/08/07 10:49:49;;;;;;;1.72;0.70;;;;;;;26.69;43.63;98782.83;1711770;81;20917;-65
2021/08/07 10:52:32;;;;;;;1.82;1.07;;;;;;;26.93;45.73;98781.37;1711478;81;20945;-66
2021/08/07 10:54:58;;;;;;;2.08;0.78;;;;;;;27.37;41.49;98789.57;1709894;81;21093;-65
2021/08/07 10:57:38;;;;;;;0.80;0.72;;;;;;;27.43;40.50;98792.02;1732545;81;20926;-65
2021/08/07 11:00:19;;;;;;;5.12;0.90;;;;;;;27.32;40.62;98794.34;1753144;81;21391;-65
2021/08/07 11:02:48;;;;;;;1.10;0.90;;;;;;;27.27;40.17;98797.09;1737087;81;37750;-65
2021/08/07 11:05:15;;;;;;;2.33;0.72;;;;;;;27.21;40.48;98788.23;1681816;84;20937;-65
2021/08/07 11:07:41;;;;;;;1.67;0.80;;;;;;;27.07;39.44;98785.23;1658755;85;21933;-65
2021/08/07 11:10:14;;;;;;;2.83;0.88;;;;;;;27.12;42.78;98782.48;1684114;85;20960;-65
2021/08/07 11:12:48;;;;;;;0.98;0.80;;;;;;;27.23;38.69;98771.67;1684061;85;20909;-65
2021/08/07 11:15:17;;;;;;;2.02;0.80;;;;;;;26.96;41.19;98789.75;1683829;85;20953;-64
2021/08/07 11:17:45;;;;;;;2.55;1.02;;;;;;;26.88;39.41;98788.95;1683621;83;21555;-66
2021/08/07 11:20:14;;;;;;;3.33;1.22;;;;;;;26.64;40.17;98797.61;1716501;82;21146;-65
2021/08/07 11:22:47;;;;;;;3.50;1.02;;;;;;;26.36;41.04;98803.20;1722056;83;20919;-65
2021/08/07 11:25:22;;;;;;;1.92;1.30;;;;;;;26.23;40.53;98805.28;1711297;83;20989;-66
2021/08/07 11:27:58;;;;;;;2.67;0.90;;;;;;;26.31;41.74;98805.93;1713425;82;20929;-68
2021/08/07 11:30:30;;;;;;;2.35;1.00;;;;;;;26.26;40.81;98803.00;1684069;85;21039;-64
2021/08/07 11:33:06;;;;;;;2.85;0.75;;;;;;;26.07;41.71;98808.70;1683911;84;21089;-64
2021/08/07 11:35:45;;;;;;;2.90;1.05;;;;;;;25.71;41.24;98807.34;1683938;85;20976;-64
2021/08/07 11:38:15;;;;;;;1.12;0.80;;;;;;;25.63;44.15;98818.70;1683418;84;20937;-67
2021/08/07 11:40:53;;;;;;;3.10;0.98;;;;;;;25.83;43.65;98817.91;1683817;84;20932;-66